Guasti, California
Current Conditions -  °F | °C
As of 4:53 AM on Saturday 01 Nov 2014 (Local Time) from KONT Reporting Station
Broken Clouds Broken Clouds  
Wind Chill: 57°   Ceiling: 5000
Heat Index: 57°   Visibility: 10mi
Dew Point: 53°   Wind: 13mph
Humidity: 87%   Direction: 250°WSW
Pressure: 29.87"   Gusts: NA
Location:  34.07°N, 117.59°W
Report Text: KONT 011153Z 25011KT 10SM FEW012 SCT025 BKN050 14/12 A2987 RMK AO2 RAE1057 SLP108 P0000 60045 70058 T01390117 10167 20139 53010 $
Loading
Personal Weather Stations






























Interactive Weather Map
Tropical Storm Tracking
New forecast layout! Learn more

10-Day Weather Forecast

Advertisements
Track Severe Weather on mobile